Terminal Aerodrome Forecast
Issued by NWS Corpus Christi, TX

Home | Current Version | Previous Version | Text Only | Print | Product List | Glossary On
Versions: 1 2 3 4 5 6 7 8 9 10 11 12 13 14 15 16 17 18 19 20
166
FTUS44 KCRP 241122
TAFCRP
TAF
KCRP 241122Z 2412/2512 12010KT P6SM SCT011 OVC020
      TEMPO 2412/2414 BKN011 OVC020
     FM241400 14012KT P6SM SCT015 BKN025
     FM242000 13018G25KT P6SM SCT025 BKN050
     FM250100 12014KT P6SM SCT020 BKN200
     FM250600 13010KT P6SM BKN015
     FM251000 13008KT P6SM BKN009 OVC020=

USA.gov is the U.S. government's official web portal to all federal, state and local government web resources and services.